createdAt,value
2022-10-21T00:00:09.848Z,10.75
2022-10-21T00:02:36.883Z,11.73
2022-10-21T00:05:04.600Z,11.07
2022-10-21T00:07:31.375Z,20.77
2022-10-21T00:09:58.161Z,11.43
2022-10-21T00:12:27.742Z,10.27
2022-10-21T00:14:57.137Z,10.32
2022-10-21T00:17:24.435Z,10.95
2022-10-21T00:19:51.194Z,9.90
2022-10-21T00:22:18.050Z,9.52
2022-10-21T00:24:44.870Z,11.75
2022-10-21T00:27:11.789Z,11.40
2022-10-21T00:29:39.990Z,8.20
2022-10-21T00:32:06.817Z,9.90
2022-10-21T00:34:33.737Z,8.80
2022-10-21T00:37:00.593Z,7.00
2022-10-21T00:39:27.464Z,6.95
2022-10-21T00:41:54.227Z,6.85
2022-10-21T00:44:21.007Z,6.72
2022-10-21T00:46:52.472Z,6.13
2022-10-21T00:49:24.351Z,6.47
2022-10-21T00:51:55.820Z,5.70
2022-10-21T00:54:25.023Z,5.10
2022-10-21T00:56:54.402Z,5.50
2022-10-21T00:59:23.821Z,5.53
2022-10-21T01:01:52.270Z,5.82
2022-10-21T01:04:19.114Z,5.35
2022-10-21T01:06:47.304Z,6.35
2022-10-21T01:09:15.069Z,6.43
2022-10-21T01:11:44.238Z,5.80
2022-10-21T01:14:33.900Z,5.90
2022-10-21T01:17:26.187Z,5.93
2022-10-21T01:20:28.700Z,5.30
2022-10-21T01:23:26.233Z,6.00
2022-10-21T01:26:34.356Z,5.78
2022-10-21T01:29:24.505Z,5.70
2022-10-21T01:32:03.330Z,5.28
2022-10-21T01:34:37.706Z,5.60
2022-10-21T01:37:12.453Z,5.45
2022-10-21T01:39:44.066Z,5.57
2022-10-21T01:42:17.118Z,6.03
2022-10-21T01:44:51.038Z,5.70
2022-10-21T01:47:22.921Z,5.18
2022-10-21T01:49:55.032Z,5.40
2022-10-21T01:52:22.569Z,4.80
2022-10-21T01:54:54.981Z,4.97
2022-10-21T01:57:26.924Z,5.18
2022-10-21T01:59:57.629Z,4.95
2022-10-21T02:02:28.419Z,5.18
2022-10-21T02:04:58.272Z,5.30
2022-10-21T02:07:25.072Z,4.95
2022-10-21T02:09:51.873Z,5.15
2022-10-21T02:12:20.528Z,4.68
2022-10-21T02:14:51.346Z,4.15
2022-10-21T02:17:21.634Z,5.57
2022-10-21T02:19:49.796Z,4.68
2022-10-21T02:22:21.931Z,4.57
2022-10-21T02:24:53.476Z,5.22
2022-10-21T02:27:21.276Z,5.03
2022-10-21T02:29:52.056Z,5.20
2022-10-21T02:32:29.274Z,5.43
2022-10-21T02:35:08.841Z,5.85
2022-10-21T02:37:43.472Z,5.28
2022-10-21T02:40:17.674Z,6.47
2022-10-21T02:42:49.595Z,5.72
2022-10-21T02:45:17.720Z,6.03
2022-10-21T02:47:44.966Z,5.60
2022-10-21T02:50:13.255Z,5.78
2022-10-21T02:52:40.043Z,5.65
2022-10-21T02:55:07.793Z,5.00
2022-10-21T02:57:34.549Z,5.97
2022-10-21T03:00:01.427Z,5.80
2022-10-21T03:02:28.283Z,6.60
2022-10-21T03:04:55.019Z,5.78
2022-10-21T03:07:23.169Z,5.75
2022-10-21T03:09:49.952Z,5.40
2022-10-21T03:12:16.731Z,6.30
2022-10-21T03:14:43.476Z,5.03
2022-10-21T03:17:10.253Z,4.65
2022-10-21T03:19:36.994Z,5.13
2022-10-21T03:22:03.750Z,5.10
2022-10-21T03:24:32.081Z,4.47
2022-10-21T03:26:58.990Z,5.35
2022-10-21T03:29:25.761Z,5.10
2022-10-21T03:31:52.952Z,4.03
2022-10-21T03:34:19.720Z,4.50
2022-10-21T03:36:46.490Z,4.65
2022-10-21T03:39:13.639Z,4.15
2022-10-21T03:41:41.788Z,4.35
2022-10-21T03:44:08.796Z,4.88
2022-10-21T03:46:35.571Z,4.55
2022-10-21T03:49:04.973Z,5.10
2022-10-21T03:51:34.442Z,4.90
2022-10-21T03:54:01.266Z,4.93
2022-10-21T03:56:28.415Z,4.82
2022-10-21T03:58:58.784Z,4.57
2022-10-21T04:01:25.836Z,5.78
2022-10-21T04:03:52.905Z,4.95
2022-10-21T04:06:19.664Z,4.43
2022-10-21T04:08:46.478Z,4.97
2022-10-21T04:11:13.333Z,5.28
2022-10-21T04:13:40.133Z,6.03
2022-10-21T04:16:13.419Z,5.40
2022-10-21T04:18:40.317Z,4.75
2022-10-21T04:21:07.218Z,5.03
2022-10-21T04:23:33.974Z,4.50
2022-10-21T04:26:00.730Z,5.82
2022-10-21T04:28:27.563Z,4.95
2022-10-21T04:30:54.436Z,5.07
2022-10-21T04:33:22.652Z,5.07
2022-10-21T04:35:49.412Z,5.05
2022-10-21T04:38:16.191Z,5.45
2022-10-21T04:40:42.991Z,4.90
2022-10-21T04:43:09.775Z,4.65
2022-10-21T04:45:38.783Z,4.75
2022-10-21T04:48:06.270Z,4.72
2022-10-21T04:50:35.312Z,4.72
2022-10-21T04:53:02.057Z,4.38
2022-10-21T04:55:28.865Z,4.13
2022-10-21T04:57:55.640Z,4.40
2022-10-21T05:00:22.780Z,4.78
2022-10-21T05:02:49.693Z,4.25
2022-10-21T05:05:16.725Z,4.88
2022-10-21T05:07:44.821Z,4.55
2022-10-21T05:10:11.578Z,4.85
2022-10-21T05:12:38.379Z,4.90
2022-10-21T05:15:05.986Z,4.10
2022-10-21T05:17:32.750Z,3.88
2022-10-21T05:19:59.485Z,4.80
2022-10-21T05:22:26.337Z,4.32
2022-10-21T05:24:54.818Z,3.90
2022-10-21T05:27:21.724Z,4.07
2022-10-21T05:29:48.529Z,4.03
2022-10-21T05:32:15.353Z,3.80
2022-10-21T05:34:42.122Z,3.88
2022-10-21T05:37:08.948Z,3.97
2022-10-21T05:39:35.921Z,4.45
2022-10-21T05:42:04.262Z,4.18
2022-10-21T05:44:31.039Z,4.85
2022-10-21T05:46:57.800Z,4.43
2022-10-21T05:49:24.654Z,3.75
2022-10-21T05:51:51.518Z,4.97
2022-10-21T05:54:18.367Z,4.22
2022-10-21T05:56:45.200Z,3.83
2022-10-21T05:59:13.441Z,4.35
2022-10-21T06:01:40.877Z,4.15
2022-10-21T06:04:08.121Z,4.43
2022-10-21T06:06:34.907Z,4.68
2022-10-21T06:09:02.021Z,4.55
2022-10-21T06:11:28.887Z,4.32
2022-10-21T06:13:55.645Z,4.90
2022-10-21T06:16:23.912Z,5.22
2022-10-21T06:18:50.749Z,4.80
2022-10-21T06:21:17.673Z,5.28
2022-10-21T06:23:44.448Z,5.55
2022-10-21T06:26:14.102Z,4.95
2022-10-21T06:28:42.488Z,4.80
2022-10-21T06:31:13.075Z,5.13
2022-10-21T06:33:41.438Z,4.88
2022-10-21T06:36:08.194Z,4.90
2022-10-21T06:38:37.118Z,5.22
2022-10-21T06:41:09.211Z,5.25
2022-10-21T06:43:39.324Z,4.60
2022-10-21T06:46:08.094Z,4.65
2022-10-21T06:48:35.359Z,4.45
2022-10-21T06:51:05.786Z,4.90
2022-10-21T06:53:35.182Z,4.75
2022-10-21T06:56:08.053Z,4.97
2022-10-21T06:58:35.854Z,4.80
2022-10-21T07:01:16.444Z,4.20
2022-10-21T07:03:53.985Z,4.80
2022-10-21T07:06:22.672Z,5.00
2022-10-21T07:08:57.813Z,4.93
2022-10-21T07:11:26.000Z,5.03
2022-10-21T07:13:52.775Z,4.75
2022-10-21T07:16:23.503Z,4.50
2022-10-21T07:18:50.688Z,4.60
2022-10-21T07:21:19.404Z,5.15
2022-10-21T07:23:51.155Z,4.82
2022-10-21T07:26:18.689Z,5.13
2022-10-21T07:28:47.756Z,4.90
2022-10-21T07:31:14.830Z,5.35
2022-10-21T07:33:42.497Z,4.78
2022-10-21T07:36:12.655Z,4.65
2022-10-21T07:38:40.140Z,4.80
2022-10-21T07:41:08.484Z,5.13
2022-10-21T07:43:35.401Z,4.85
2022-10-21T07:46:05.974Z,5.72
2022-10-21T07:48:33.838Z,4.72
2022-10-21T07:51:03.955Z,5.25
2022-10-21T07:53:30.743Z,5.07
2022-10-21T07:56:06.137Z,4.97
2022-10-21T07:58:34.985Z,5.10
2022-10-21T08:01:04.264Z,4.97
2022-10-21T08:03:31.355Z,3.83
2022-10-21T08:05:58.832Z,4.47
2022-10-21T08:08:26.068Z,3.97
2022-10-21T08:10:54.393Z,3.90
2022-10-21T08:13:21.780Z,4.43
2022-10-21T08:15:51.888Z,3.67
2022-10-21T08:18:19.605Z,3.60
2022-10-21T08:20:48.342Z,3.88
2022-10-21T08:23:20.064Z,3.80
2022-10-21T08:25:47.759Z,2.80
2022-10-21T08:28:15.755Z,3.83
2022-10-21T08:30:42.671Z,2.85
2022-10-21T08:33:12.056Z,2.83
2022-10-21T08:35:39.755Z,2.85
2022-10-21T08:40:41.814Z,3.08
2022-10-21T08:43:09.908Z,3.08
2022-10-21T08:45:41.595Z,2.60
2022-10-21T08:48:16.078Z,3.13
2022-10-21T08:50:47.103Z,3.03
2022-10-21T08:53:20.039Z,3.05
2022-10-21T08:55:46.954Z,2.92
2022-10-21T08:58:16.490Z,3.13
2022-10-21T09:00:48.545Z,2.75
2022-10-21T09:03:35.938Z,3.10
2022-10-21T09:06:17.434Z,2.88
2022-10-21T09:08:57.206Z,3.08
2022-10-21T09:11:36.095Z,2.92
2022-10-21T09:14:39.776Z,1.98
2022-10-21T09:17:18.681Z,2.38
2022-10-21T09:19:53.553Z,2.83
2022-10-21T09:22:40.273Z,2.97
2022-10-21T09:25:19.163Z,2.35
2022-10-21T09:28:01.211Z,2.78
2022-10-21T09:30:28.357Z,2.83
2022-10-21T09:32:56.749Z,2.72
2022-10-21T09:35:32.549Z,2.13
2022-10-21T09:38:03.735Z,3.42
2022-10-21T09:40:32.428Z,2.72
2022-10-21T09:43:01.495Z,2.55
2022-10-21T09:45:32.732Z,2.50
2022-10-21T09:48:03.203Z,2.28
2022-10-21T09:50:33.079Z,2.42
2022-10-21T09:53:10.730Z,2.90
2022-10-21T09:55:39.983Z,2.30
2022-10-21T09:58:06.914Z,2.85
2022-10-21T10:00:46.465Z,2.80
2022-10-21T10:03:28.832Z,2.72
2022-10-21T10:05:57.036Z,2.17
2022-10-21T10:08:34.707Z,1.77
2022-10-21T10:11:04.696Z,2.72
2022-10-21T10:13:32.079Z,2.00
2022-10-21T10:16:17.507Z,2.30
2022-10-21T10:18:45.167Z,2.08
2022-10-21T10:21:16.366Z,1.80
2022-10-21T10:23:45.909Z,2.25
2022-10-21T10:26:20.357Z,1.90
2022-10-21T10:28:54.131Z,1.65
2022-10-21T10:31:30.704Z,1.88
2022-10-21T10:34:00.391Z,1.75
2022-10-21T10:36:33.034Z,2.15
2022-10-21T10:39:02.197Z,1.75
2022-10-21T10:41:33.937Z,1.80
2022-10-21T10:44:02.491Z,2.03
2022-10-21T10:46:32.567Z,1.65
2022-10-21T10:49:06.294Z,2.03
2022-10-21T10:51:36.362Z,1.95
2022-10-21T10:54:17.615Z,2.35
2022-10-21T10:56:50.486Z,1.73
2022-10-21T10:59:25.232Z,2.25
2022-10-21T11:02:00.308Z,1.67
2022-10-21T11:04:33.736Z,1.55
2022-10-21T11:07:12.355Z,1.70
2022-10-21T11:09:40.609Z,1.88
2022-10-21T11:12:16.901Z,1.88
2022-10-21T11:14:45.018Z,2.03
2022-10-21T11:17:13.540Z,1.88
2022-10-21T11:19:47.618Z,1.70
2022-10-21T11:22:28.411Z,1.55
2022-10-21T11:24:57.109Z,1.88
2022-10-21T11:27:37.907Z,2.03
2022-10-21T11:30:13.399Z,1.90
2022-10-21T11:32:54.334Z,1.52
2022-10-21T11:35:34.331Z,1.50
2022-10-21T11:38:17.613Z,1.92
2022-10-21T11:40:49.328Z,1.52
2022-10-21T11:43:28.331Z,1.73
2022-10-21T11:46:01.348Z,2.85
2022-10-21T11:48:44.326Z,1.50
2022-10-21T11:51:23.020Z,2.10
2022-10-21T11:54:23.522Z,1.80
2022-10-21T11:56:59.537Z,2.03
2022-10-21T11:59:38.677Z,2.25
2022-10-21T12:02:16.223Z,1.92
2022-10-21T12:04:51.580Z,1.77
2022-10-21T12:07:33.422Z,2.00
2022-10-21T12:10:07.760Z,1.73
2022-10-21T12:12:40.063Z,1.67
2022-10-21T12:15:17.416Z,1.90
2022-10-21T12:17:47.446Z,1.67
2022-10-21T12:20:22.803Z,1.50
2022-10-21T12:22:59.379Z,1.23
2022-10-21T12:25:37.155Z,1.50
2022-10-21T12:28:08.803Z,1.75
2022-10-21T12:30:40.794Z,1.50
2022-10-21T12:33:24.724Z,1.63
2022-10-21T12:38:42.131Z,1.33
2022-10-21T12:41:28.456Z,1.50
2022-10-21T12:44:03.728Z,1.58
2022-10-21T12:46:39.069Z,1.17
2022-10-21T12:49:20.423Z,1.10
2022-10-21T12:51:50.427Z,1.13
2022-10-21T12:54:24.189Z,1.55
2022-10-21T12:57:02.191Z,1.30
2022-10-21T12:59:35.450Z,1.38
2022-10-21T13:02:21.991Z,1.17
2022-10-21T13:04:52.447Z,1.45
2022-10-21T13:07:37.945Z,1.65
2022-10-21T13:10:34.678Z,1.48
2022-10-21T13:13:41.178Z,1.33
2022-10-21T13:16:36.072Z,1.77
2022-10-21T13:19:05.206Z,1.70
2022-10-21T13:21:40.341Z,1.35
2022-10-21T13:24:23.838Z,1.27
2022-10-21T13:26:53.267Z,1.50
2022-10-21T13:29:33.126Z,1.67
2022-10-21T13:32:32.158Z,1.45
2022-10-21T13:35:08.034Z,1.23
2022-10-21T13:37:37.695Z,1.35
2022-10-21T13:40:07.668Z,1.02
2022-10-21T13:42:40.062Z,1.30
2022-10-21T13:45:21.101Z,0.82
2022-10-21T13:47:59.703Z,1.02
2022-10-21T13:50:28.413Z,1.15
2022-10-21T13:52:55.761Z,1.08
2022-10-21T13:55:24.715Z,1.05
2022-10-21T13:57:53.643Z,0.90
2022-10-21T14:00:22.681Z,0.80
2022-10-21T14:02:52.879Z,0.90
2022-10-21T14:05:37.094Z,1.05
2022-10-21T14:08:07.780Z,0.77
2022-10-21T14:10:35.879Z,1.05
2022-10-21T14:13:04.661Z,0.80
2022-10-21T14:15:39.940Z,1.05
2022-10-21T14:18:08.490Z,1.10
2022-10-21T14:20:37.418Z,1.13
2022-10-21T14:23:06.523Z,1.02
2022-10-21T14:25:33.619Z,1.10
2022-10-21T14:28:03.856Z,0.55
2022-10-21T14:30:33.518Z,0.80
2022-10-21T14:33:03.389Z,1.20
2022-10-21T14:35:31.917Z,1.10
2022-10-21T14:38:00.314Z,0.90
2022-10-21T14:40:32.839Z,1.10
2022-10-21T14:43:01.213Z,0.67
2022-10-21T14:45:30.378Z,0.77
2022-10-21T14:48:08.470Z,0.65
2022-10-21T14:50:37.818Z,0.90
2022-10-21T14:53:15.569Z,0.93
2022-10-21T14:55:43.411Z,1.05
2022-10-21T15:00:56.123Z,0.60
2022-10-21T15:03:40.531Z,1.00
2022-10-21T15:06:11.471Z,1.10
2022-10-21T15:08:41.973Z,1.08
2022-10-21T15:11:32.313Z,0.70
2022-10-21T15:14:06.370Z,0.63
2022-10-21T15:19:15.662Z,1.60
2022-10-21T15:21:49.811Z,0.70
2022-10-21T15:24:19.578Z,1.10
2022-10-21T15:26:48.967Z,1.23
2022-10-21T15:29:25.214Z,0.80
2022-10-21T15:31:55.251Z,0.73
2022-10-21T15:34:22.463Z,1.15
2022-10-21T15:36:50.788Z,1.05
2022-10-21T15:39:17.745Z,1.00
2022-10-21T15:41:45.407Z,0.90
2022-10-21T15:44:19.205Z,0.70
2022-10-21T15:46:47.132Z,1.20
2022-10-21T15:49:18.181Z,1.27
2022-10-21T15:51:45.288Z,1.20
2022-10-21T15:54:13.726Z,1.40
2022-10-21T15:56:42.444Z,1.40
2022-10-21T15:59:11.906Z,1.35
2022-10-21T16:01:38.706Z,1.40
2022-10-21T16:04:05.575Z,1.20
2022-10-21T16:06:32.392Z,1.50
2022-10-21T16:08:59.339Z,1.80
2022-10-21T16:11:40.541Z,1.60
2022-10-21T16:14:10.207Z,1.20
2022-10-21T16:16:38.927Z,1.70
2022-10-21T16:19:05.802Z,1.63
2022-10-21T16:21:32.663Z,1.38
2022-10-21T16:23:59.505Z,1.63
2022-10-21T16:26:28.954Z,1.75
2022-10-21T16:28:57.448Z,1.70
2022-10-21T16:31:26.491Z,1.95
2022-10-21T16:33:53.824Z,1.90
2022-10-21T16:36:23.955Z,2.30
2022-10-21T16:38:51.947Z,2.25
2022-10-21T16:41:21.381Z,1.80
2022-10-21T16:43:49.751Z,2.65
2022-10-21T16:46:24.157Z,1.90
2022-10-21T16:48:53.172Z,2.20
2022-10-21T16:51:22.794Z,2.10
2022-10-21T16:53:49.824Z,1.60
2022-10-21T16:56:16.907Z,2.15
2022-10-21T16:58:44.269Z,1.73
2022-10-21T17:01:16.039Z,2.60
2022-10-21T17:03:43.799Z,1.92
2022-10-21T17:06:14.875Z,1.85
2022-10-21T17:08:42.284Z,2.00
2022-10-21T17:11:14.197Z,1.58
2022-10-21T17:13:42.298Z,2.47
2022-10-21T17:16:09.848Z,2.33
2022-10-21T17:18:38.590Z,2.30
2022-10-21T17:21:06.033Z,2.67
2022-10-21T17:23:33.020Z,1.92
2022-10-21T17:25:59.839Z,2.50
2022-10-21T17:28:26.608Z,2.30
2022-10-21T17:30:53.567Z,1.98
2022-10-21T17:33:20.441Z,1.90
2022-10-21T17:35:48.812Z,2.30
2022-10-21T17:38:15.573Z,1.83
2022-10-21T17:40:42.361Z,2.17
2022-10-21T17:43:09.227Z,2.10
2022-10-21T17:45:36.050Z,2.05
2022-10-21T17:48:03.366Z,2.38
2022-10-21T17:50:31.934Z,2.15
2022-10-21T17:53:00.125Z,1.83
2022-10-21T17:55:27.307Z,1.73
2022-10-21T17:57:54.128Z,2.05
2022-10-21T18:00:20.926Z,2.30
2022-10-21T18:02:47.740Z,2.28
2022-10-21T18:05:14.892Z,2.20
2022-10-21T18:07:42.055Z,2.35
2022-10-21T18:10:10.749Z,2.25
2022-10-21T18:12:37.831Z,2.65
2022-10-21T18:15:05.530Z,2.42
2022-10-21T18:17:33.884Z,1.67
2022-10-21T18:20:00.855Z,2.17
2022-10-21T18:22:27.709Z,2.00
2022-10-21T18:24:54.562Z,2.72
2022-10-21T18:27:22.780Z,2.72
2022-10-21T18:29:49.649Z,2.22
2022-10-21T18:32:16.699Z,2.95
2022-10-21T18:34:43.570Z,2.55
2022-10-21T18:37:10.385Z,2.28
2022-10-21T18:39:37.191Z,2.63
2022-10-21T18:42:04.143Z,2.90
2022-10-21T18:44:32.401Z,2.08
2022-10-21T18:46:59.197Z,2.70
2022-10-21T18:49:26.002Z,2.50
2022-10-21T18:51:52.758Z,2.13
2022-10-21T18:54:19.592Z,3.30
2022-10-21T18:56:46.420Z,2.75
2022-10-21T18:59:13.283Z,2.35
2022-10-21T19:01:41.517Z,2.38
2022-10-21T19:04:08.653Z,2.40
2022-10-21T19:06:40.396Z,2.30
2022-10-21T19:09:13.099Z,1.88
2022-10-21T19:11:40.113Z,2.43
2022-10-21T19:14:09.858Z,2.85
2022-10-21T19:16:41.375Z,2.58
2022-10-21T19:19:11.251Z,3.40
2022-10-21T19:21:38.159Z,2.97
2022-10-21T19:24:06.022Z,2.30
2022-10-21T19:26:35.888Z,2.60
2022-10-21T19:29:04.659Z,2.78
2022-10-21T19:31:36.026Z,2.88
2022-10-21T19:34:06.409Z,3.00
2022-10-21T19:36:33.794Z,3.08
2022-10-21T19:39:00.600Z,3.58
2022-10-21T19:41:27.378Z,3.08
2022-10-21T19:43:59.409Z,3.33
2022-10-21T19:46:28.441Z,3.05
2022-10-21T19:48:55.701Z,3.55
2022-10-21T19:51:25.415Z,3.30
2022-10-21T19:53:53.605Z,2.97
2022-10-21T19:56:25.598Z,3.42
2022-10-21T19:58:54.110Z,2.80
2022-10-21T20:01:23.334Z,3.13
2022-10-21T20:03:51.282Z,3.47
2022-10-21T20:06:21.878Z,2.95
2022-10-21T20:08:50.190Z,3.22
2022-10-21T20:11:19.885Z,2.70
2022-10-21T20:13:48.070Z,3.00
2022-10-21T20:16:16.391Z,3.05
2022-10-21T20:18:43.365Z,2.97
2022-10-21T20:21:10.442Z,3.03
2022-10-21T20:23:37.289Z,2.90
2022-10-21T20:26:06.416Z,2.95
2022-10-21T20:28:34.119Z,3.35
2022-10-21T20:31:03.123Z,2.85
2022-10-21T20:33:32.888Z,2.58
2022-10-21T20:36:02.830Z,3.50
2022-10-21T20:38:30.524Z,2.75
2022-10-21T20:40:59.967Z,2.80
2022-10-21T20:43:28.300Z,2.95
2022-10-21T20:45:55.165Z,3.38
2022-10-21T20:48:21.966Z,2.60
2022-10-21T20:50:48.732Z,2.92
2022-10-21T20:53:15.494Z,2.90
2022-10-21T20:55:43.764Z,3.25
2022-10-21T20:58:10.558Z,3.45
2022-10-21T21:00:40.591Z,3.10
2022-10-21T21:03:09.146Z,2.67
2022-10-21T21:05:38.115Z,3.50
2022-10-21T21:08:06.403Z,3.25
2022-10-21T21:10:33.325Z,3.35
2022-10-21T21:13:00.216Z,3.03
2022-10-21T21:15:27.172Z,3.13
2022-10-21T21:17:56.279Z,3.45
2022-10-21T21:20:23.011Z,3.10
2022-10-21T21:22:49.806Z,3.15
2022-10-21T21:25:16.765Z,2.03
2022-10-21T21:27:43.602Z,3.45
2022-10-21T21:30:11.243Z,2.83
2022-10-21T21:32:38.441Z,3.05
2022-10-21T21:35:08.527Z,3.35
2022-10-21T21:37:35.304Z,2.92
2022-10-21T21:40:02.087Z,2.90
2022-10-21T21:42:28.934Z,2.85
2022-10-21T21:44:55.938Z,3.28
2022-10-21T21:47:22.680Z,2.70
2022-10-21T21:49:49.647Z,3.15
2022-10-21T21:52:17.898Z,3.15
2022-10-21T21:54:44.646Z,2.92
2022-10-21T21:57:28.089Z,2.78
2022-10-21T21:59:55.384Z,2.67
2022-10-21T22:02:22.169Z,3.00
2022-10-21T22:04:49.027Z,3.25
2022-10-21T22:07:17.218Z,3.75
2022-10-21T22:09:43.973Z,2.08
2022-10-21T22:12:14.309Z,3.63
2022-10-21T22:14:41.697Z,2.83
2022-10-21T22:17:08.471Z,2.60
2022-10-21T22:19:35.545Z,2.78
2022-10-21T22:22:02.359Z,3.20
2022-10-21T22:27:01.311Z,2.85
2022-10-21T22:29:28.065Z,2.53
2022-10-21T22:31:54.830Z,2.40
2022-10-21T22:34:21.644Z,2.58
2022-10-21T22:36:48.519Z,2.90
2022-10-21T22:39:15.245Z,3.03
2022-10-21T22:41:43.451Z,2.75
2022-10-21T22:44:13.376Z,2.55
2022-10-21T22:46:40.240Z,2.58
2022-10-21T22:49:07.066Z,2.75
2022-10-21T22:51:34.225Z,2.60
2022-10-21T22:54:01.199Z,2.80
2022-10-21T22:56:28.733Z,3.15
2022-10-21T22:58:57.650Z,2.78
2022-10-21T23:01:29.059Z,2.55
2022-10-21T23:03:57.057Z,3.20
2022-10-21T23:06:24.261Z,2.55
2022-10-21T23:08:51.134Z,2.78
2022-10-21T23:11:17.995Z,2.63
2022-10-21T23:13:56.248Z,3.13
2022-10-21T23:16:33.444Z,3.63
2022-10-21T23:19:00.583Z,3.28
2022-10-21T23:21:27.948Z,2.92
2022-10-21T23:23:54.727Z,2.42
2022-10-21T23:26:21.570Z,3.40
2022-10-21T23:28:48.296Z,4.18
2022-10-21T23:31:15.259Z,3.55
2022-10-21T23:33:43.559Z,3.17
2022-10-21T23:36:10.452Z,2.75
2022-10-21T23:38:37.254Z,3.30
2022-10-21T23:41:04.524Z,3.05
2022-10-21T23:43:31.265Z,2.90
2022-10-21T23:45:58.028Z,3.67
2022-10-21T23:48:24.882Z,3.65
2022-10-21T23:50:53.049Z,3.53
2022-10-21T23:53:19.772Z,2.88
2022-10-21T23:55:46.577Z,3.33
2022-10-21T23:58:13.720Z,2.45
